Highlands Peak, California Weather observations

Data are for observation ending at time listed.
 Day   Time    Ave.   Ave.  Ave.  Vector   Max.   Stn.    Total    Solar   Ave.  
  of    of     Air    Rel.  Wind   Wind    Wind   Baro.  Precip.   Rad.    Soil  
Year   Day     Temp.  Hum.  Speed  Dir.    Gust   Pres.                    Temp. 
2020   (PST)    F      %     mph   deg.    mph     mb.     in.     W/m2     F   
------------------------------------------------------------------------------
 152   11:50   60.1    81    4.6    52      7.4   928.9    0.00     563    65.6
 152   12:00   62.2    78    1.3   258      3.5   928.9    0.00     743    65.8
 152   12:10   60.5    79    3.6   245      6.4   929.0    0.00     670    66.0
 152   12:20   59.7    82    4.2   192      8.4   929.3    0.00     761    66.2
 152   12:30   59.9    81    4.3   204      8.0   929.4    0.00     800    66.5
 152   12:40   60.4    80    2.1   232      4.8   929.4    0.00     675    66.7
 152   12:50   59.8    82    2.8   276      4.5   929.3    0.00     714    66.9
 152   13:00   59.2    82    2.7   278      5.4   929.2    0.00     544    67.1
 152   13:10   58.4    84    3.1   257      4.9   929.2    0.00     530    67.3
 152   13:20   59.6    83    2.5   272      4.2   929.3    0.00     666    67.6
 152   13:30   60.2    82    3.6   268      6.0   929.2    0.00     644    67.8
 152   13:40   60.4    82    2.0   309      4.4   929.1    0.00     636    68.0
 152   13:50   61.4    80    2.7   282      5.5   929.2    0.00     607    68.2
 152   14:00   60.2    81    3.3   272      4.8   929.1    0.00     671    68.5
 152   14:10   60.2    82    4.0   266      6.8   929.1    0.00     616    68.7
 152   14:20   59.1    83    2.6   273      4.9   929.1    0.00     402    68.9
 152   14:30   58.8    84    2.1   281      3.5   929.0    0.00     352    69.1
 152   14:40   58.5    83    1.8   264      4.4   929.1    0.00     327    69.3
 152   14:50   58.8    84    2.2   284      3.6   929.0    0.00     310    69.5
 152   15:00   58.9    83    2.0   306      5.1   928.9    0.00     318    69.6
 152   15:10   59.3    83    2.8   336      5.4   928.8    0.00     404    69.8
 152   15:20   59.3    80    3.4   277      6.4   928.9    0.00     453    69.9
 152   15:30   59.4    80    1.7   304      4.5   928.8    0.00     408    70.0
 152   15:40   59.9    80    2.5   279      4.3   928.7    0.00     405    70.1
 152   15:50   60.3    80    1.8   294      4.2   928.7    0.00     324    70.2
 152   16:00   58.9    82    3.0   267      5.0   928.7    0.00     336    70.3
 152   16:10   58.2    83    3.0   279      5.5   928.7    0.00     378    70.4
 152   16:20   58.4    82    2.4   302      4.4   928.7    0.00     333    70.5
 152   16:30   57.9    82    2.4   345      3.7   928.6    0.00     192    70.6
 152   16:40   58.2    81    1.2   313      2.3   928.6    0.00     170    70.7
 152   16:50   58.3    82    2.1   298      4.2   928.4    0.00     181    70.8
 152   17:00   58.1    78    3.1   328      4.5   928.2    0.00     173    70.8
 152   17:10   57.9    79    2.3   324      4.1   928.1    0.00     108    70.8
 152   17:20   57.4    78    2.5   280      4.2   928.1    0.00      74    70.8
 152   17:30   57.1    77    1.6   333      2.9   927.9    0.00      93    70.8
 152   17:40   57.0    77    2.9   320      4.3   927.8    0.00      81    70.8
 152   17:50   56.6    74    3.6   274      5.0   928.0    0.00      73    70.8
 152   18:00   56.4    75    1.9   252      4.1   928.2    0.00      56    70.8
 152   18:10   56.4    77    0.8   348      2.2   928.3    0.00      43    70.8
 152   18:20   56.2    75    2.0   298      3.4   928.3    0.00      45    70.7
 152   18:30   56.3    74    1.2   321      2.1   928.3    0.00      46    70.7
 152   18:40   56.3    73    2.3    30      5.2   928.2    0.00      32    70.6
 152   18:50   56.3    79    3.5    22      5.8   928.2    0.00      15    70.5
 152   19:00   55.9    79    2.8   357      5.0   928.1    0.00      14    70.4
 152   19:10   55.5    82    3.6    16      5.9   928.0    0.00      12    70.3
 152   19:20   55.9    83    1.8   283      4.7   928.0    0.00       4    70.3
 152   19:30   56.1    82    1.7    53      2.9   928.0    0.00       1    70.2
 152   19:40   55.1    85    1.1   191      2.9   928.1    0.00       0    70.1
 152   19:50   54.7    86    1.3   242      3.2   928.3    0.00       0    70.0
 152   20:00   54.1    88    2.2    59      4.3   928.2    0.00       0    69.9
 152   20:10   53.8    89    5.0    44      7.2   928.1    0.00       0    69.8
 152   20:20   54.1    89    5.1    52      7.6   928.0    0.00       0    69.7
 152   20:30   55.3    83    3.3    18      4.7   928.2    0.00       0    69.6
 152   20:40   56.8    75    3.2    27      4.7   928.3    0.00       0    69.5
 152   20:50   57.9    69    2.4   329      3.6   928.4    0.00       0    69.4
 152   21:00   58.2    66    3.4   345      4.1   928.4    0.00       0    69.3
 152   21:10   58.4    66    2.5   344      3.7   928.4    0.00       0    69.2
 152   21:20   58.3    63    3.3   345      5.1   928.5    0.00       0    69.2
 152   21:30   58.2    65    3.3    25      5.0   928.5    0.00       0    69.0
 152   21:40   58.3    63    3.6    38      4.7   928.6    0.00       0    69.0
 152   21:50   58.9    60    2.9    16      5.4   928.6    0.00       0    68.9
 152   22:00   58.8    61    3.9    25      6.1   928.4    0.00       0    68.8
 152   22:10   58.4    62    4.5    32      5.4   928.4    0.00       0    68.7
 152   22:20   58.0    63    2.7    14      4.6   928.4    0.00       0    68.6
 152   22:30   58.4    61    2.3   344      3.0   928.3    0.00       0    68.5
 152   22:40   58.3    63    2.3   309      3.4   928.4    0.00       0    68.5
 152   22:50   56.9    69    2.4   328      4.5   928.4    0.00       0    68.4
 152   23:00   56.8    67    2.7    33      4.7   928.3    0.00       0    68.3
 152   23:10   56.4    69    1.6   266      2.1   928.4    0.00       0    68.2
 152   23:20   55.6    71    2.7    29      4.5   928.3    0.00       0    68.1
 152   23:30   55.3    70    4.8    35      9.6   928.2    0.00       0    68.0
 152   23:40   56.3    63    6.5    52      8.6   928.1    0.00       0    67.9
 152   23:50   56.3    62    5.7    34      7.7   928.1    0.00       0    67.7
 153    0:00   57.0    59    3.7    22      6.7   928.2    0.00       0    67.7
 153    0:10   56.5    59    6.2    64      8.5   928.1    0.00       0    67.6
 153    0:20   56.3    58    6.0    45      8.6   928.0    0.00       0    67.4
 153    0:30   56.8    52    5.5    65      8.8   927.9    0.00       0    67.4
 153    0:40   56.6    53    6.2    59      9.9   927.9    0.00       0    67.3
 153    0:50   56.8    55    1.4   331      2.6   928.1    0.00       0    67.2
 153    1:00   56.2    62    1.2   295      2.3   928.2    0.00       0    67.1
 153    1:10   55.5    62    3.3    83      5.0   928.1    0.00       0    67.0
 153    1:20   56.1    61    2.1    93      3.0   928.1    0.00       0    67.0
 153    1:30   55.9    64    0.7   132      2.4   928.1    0.00       0    66.9
 153    1:40   55.3    63    2.1    82      3.4   928.2    0.00       0    66.8
 153    1:50   55.2    61    1.8    88      3.1   928.2    0.00       0    66.7
 153    2:00   55.6    62    1.6   170      4.2   928.3    0.00       0    66.6
 153    2:10   55.5    66    0.9   170      2.0   928.3    0.00       0    66.5
 153    2:20   55.8    66    1.6   236      2.3   928.3    0.00       0    66.5
 153    2:30   55.5    66    1.1     6      2.4   928.3    0.00       0    66.4
 153    2:40   55.6    66    0.4   229      2.3   928.4    0.00       0    66.3
 153    2:50   56.0    66    0.5    94      1.0   928.4    0.00       0    66.2
 153    3:00   56.0    66    1.2   189      2.6   928.5    0.00       0    66.2
 153    3:10   55.7    67    0.8   126      1.3   928.4    0.00       0    66.1
 153    3:20   56.0    66    1.3   240      2.6   928.5    0.00       0    66.1
 153    3:30   56.1    66    0.9   250      2.6   928.5    0.00       0    66.0
 153    3:40   56.3    63    1.3    55      3.1   928.5    0.00       0    65.9
 153    3:50   55.9    63    2.6    53      3.3   928.5    0.00       0    65.9
 153    4:00   55.7    63    4.1    55      5.8   928.5    0.00       0    65.8
 153    4:10   56.3    56    2.3    65      5.1   928.6    0.00       0    65.8
 153    4:20   57.8    55    0.4   150      1.2   928.6    0.00       0    65.7
 153    4:30   58.0    56    0.9    86      2.0   928.6    0.00       0    65.7
 153    4:40   57.9    56    1.6    85      2.0   928.7    0.00       0    65.6
 153    4:50   58.0    57    0.1   100      1.0   928.7    0.00       2    65.6
 153    5:00   58.1    58    0.3   124      1.8   928.9    0.00       8    65.5
 153    5:10   57.6    59    3.3    79      4.2   929.0    0.00      18    65.4
 153    5:20   57.6    57    3.3   128      4.2   929.1    0.00      33    65.4
 153    5:30   58.3    54    2.6   237      3.9   929.2    0.00      44    65.3
 153    5:40   57.2    52    3.2    27      5.6   929.1    0.00      52    65.3
 153    5:50   56.2    47    3.2    60      5.1   929.2    0.00      70    65.2
 153    6:00   56.8    43    2.5    48      4.0   929.2    0.00     116    65.2
 153    6:10   58.3    46    1.4    16      3.7   929.3    0.00     206    65.1
 153    6:20   58.5    45    2.5    34      4.0   929.3    0.00     224    65.0
 153    6:30   58.5    46    3.7    45      5.0   929.4    0.00     262    65.0
 153    6:40   58.9    49    3.4    56      4.6   929.4    0.00     286    64.9
 153    6:50   60.3    50    3.3    67      6.1   929.4    0.00     318    64.9
 153    7:00   59.9    48    5.0    64      8.3   929.4    0.00     385    64.9
 153    7:10   59.4    52    1.9   357      4.2   929.5    0.00     418    64.8
 153    7:20   59.9    58    1.4   181      3.7   929.5    0.00     435    64.8
 153    7:30   60.3    64    1.9    95      3.7   929.6    0.00     494    64.9
 153    7:40   62.9    53    1.9    73      3.1   929.5    0.00     477    64.9
 153    7:50   64.3    53    0.5   112      2.4   929.7    0.00     582    65.0
 153    8:00   63.6    57    1.7   230      3.1   929.9    0.00     591    65.1
 153    8:10   61.8    55    1.3   203      3.4   930.0    0.00     523    65.2
 153    8:20   61.6    62    2.2   262      3.4   930.1    0.00     545    65.4
 153    8:30   59.7    66    1.9   280      2.8   930.2    0.00     493    65.5
 153    8:40   59.3    67    2.4   276      3.4   930.2    0.00     498    65.6
 153    8:50   58.9    67    2.6   275      4.2   930.4    0.00     536    65.8
 153    9:00   58.8    67    2.4   281      3.7   930.4    0.00     590    65.9
 153    9:10   59.0    66    2.5   288      4.7   930.5    0.00     667    66.0
 153    9:20   59.9    68    2.2   276      3.1   930.5    0.00     755    66.1
 153    9:30   60.3    67    2.1   282      3.7   930.5    0.00     766    66.3
 153    9:40   60.0    66    2.4   266      4.1   930.5    0.00     807    66.4
 153    9:50   59.7    66    2.7   265      4.0   930.4    0.00     727    66.6
 153   10:00   59.8    70    1.7   268      3.7   930.4    0.00     695    66.7
 153   10:10   61.0    69    1.6   276      3.2   930.5    0.00     718    66.9
 153   10:20   60.6    72    2.2   275      3.8   930.5    0.00     812    67.1
 153   10:30   60.4    74    3.2   286      4.5   930.5    0.00     788    67.2
 153   10:40   60.5    67    2.7   283      4.9   930.5    0.00     798    67.4
 153   10:50   61.1    64    3.5   276      5.7   930.5    0.00     959    67.6
 153   11:00   61.6    64    3.4   274      5.9   930.5    0.00    1146    67.7
 153   11:10   59.6    70    3.5   265      6.5   930.6    0.00     726    67.9
 153   11:20   58.8    72    2.5   279      4.3   930.6    0.00     554    68.0
 153   11:30   58.2    76    2.3   243      4.2   930.6    0.00     577    68.1
 153   11:40   56.0    82    2.3   261      5.6   930.6    0.00     571    68.2

Return to Highlands Peak graphs page.


Western Regional Climate Center,wrcc@dri.edu